sensor_id;sensor_type;location;lat;lon;timestamp;pressure;altitude;pressure_sealevel;temperature;humidity
70343;BME280;57767;42.068;24.752;2023-04-07T00:00:02;98685.53;;;6.78;40.10
70343;BME280;57767;42.068;24.752;2023-04-07T00:01:06;98685.91;;;6.75;39.41
70343;BME280;57767;42.068;24.752;2023-04-07T00:02:08;98684.91;;;6.76;39.45
70343;BME280;57767;42.068;24.752;2023-04-07T00:03:10;98691.16;;;6.75;39.89
70343;BME280;57767;42.068;24.752;2023-04-07T00:04:13;98684.06;;;6.69;39.89
70343;BME280;57767;42.068;24.752;2023-04-07T00:05:15;98646.47;;;6.47;39.69
70343;BME280;57767;42.068;24.752;2023-04-07T00:06:17;98685.69;;;6.70;40.85
70343;BME280;57767;42.068;24.752;2023-04-07T00:07:19;98689.34;;;6.76;40.94
70343;BME280;57767;42.068;24.752;2023-04-07T00:08:20;98687.97;;;6.80;39.93
70343;BME280;57767;42.068;24.752;2023-04-07T00:09:22;98686.72;;;6.76;40.06
70343;BME280;57767;42.068;24.752;2023-04-07T00:10:24;98672.66;;;6.62;39.63
70343;BME280;57767;42.068;24.752;2023-04-07T00:11:26;98686.91;;;6.74;40.65
70343;BME280;57767;42.068;24.752;2023-04-07T00:12:28;98683.88;;;6.71;39.58
70343;BME280;57767;42.068;24.752;2023-04-07T00:13:29;98681.97;;;6.65;39.84
70343;BME280;57767;42.068;24.752;2023-04-07T00:14:31;98686.66;;;6.69;39.83
70343;BME280;57767;42.068;24.752;2023-04-07T00:15:33;98682.84;;;6.72;40.27
70343;BME280;57767;42.068;24.752;2023-04-07T00:16:35;98681.66;;;6.74;40.51
70343;BME280;57767;42.068;24.752;2023-04-07T00:17:36;98685.03;;;6.68;40.04
70343;BME280;57767;42.068;24.752;2023-04-07T00:18:38;98676.72;;;6.65;39.31
70343;BME280;57767;42.068;24.752;2023-04-07T00:19:40;98682.16;;;6.63;39.70
70343;BME280;57767;42.068;24.752;2023-04-07T00:20:42;98675.66;;;6.59;40.46
70343;BME280;57767;42.068;24.752;2023-04-07T00:21:44;98681.97;;;6.65;39.68
70343;BME280;57767;42.068;24.752;2023-04-07T00:22:45;98684.16;;;6.61;39.62
70343;BME280;57767;42.068;24.752;2023-04-07T00:23:47;98676.69;;;6.58;40.60
70343;BME280;57767;42.068;24.752;2023-04-07T00:24:49;98681.16;;;6.64;39.91
70343;BME280;57767;42.068;24.752;2023-04-07T00:25:51;98685.41;;;6.65;39.86
70343;BME280;57767;42.068;24.752;2023-04-07T00:26:53;98678.53;;;6.64;39.58
70343;BME280;57767;42.068;24.752;2023-04-07T00:27:54;98679.72;;;6.62;40.29
70343;BME280;57767;42.068;24.752;2023-04-07T00:28:57;98683.16;;;6.62;40.22
70343;BME280;57767;42.068;24.752;2023-04-07T00:30:00;98684.59;;;6.65;40.14
70343;BME280;57767;42.068;24.752;2023-04-07T00:31:01;98684.78;;;6.63;40.23
70343;BME280;57767;42.068;24.752;2023-04-07T00:32:03;98667.53;;;6.54;39.89
70343;BME280;57767;42.068;24.752;2023-04-07T00:33:05;98678.47;;;6.58;39.74
70343;BME280;57767;42.068;24.752;2023-04-07T00:34:10;98676.69;;;6.58;39.25
70343;BME280;57767;42.068;24.752;2023-04-07T00:35:15;98673.59;;;6.55;39.60
70343;BME280;57767;42.068;24.752;2023-04-07T00:36:17;98675.59;;;6.53;39.79
70343;BME280;57767;42.068;24.752;2023-04-07T00:37:18;98683.66;;;6.51;39.16
70343;BME280;57767;42.068;24.752;2023-04-07T00:38:20;98679.41;;;6.50;39.52
70343;BME280;57767;42.068;24.752;2023-04-07T00:39:22;98684.19;;;6.46;39.59
70343;BME280;57767;42.068;24.752;2023-04-07T00:40:24;98679.16;;;6.45;39.56
70343;BME280;57767;42.068;24.752;2023-04-07T00:41:25;98690.53;;;6.52;39.45
70343;BME280;57767;42.068;24.752;2023-04-07T00:42:27;98669.47;;;6.45;39.95
70343;BME280;57767;42.068;24.752;2023-04-07T00:43:29;98675.91;;;6.43;40.02
70343;BME280;57767;42.068;24.752;2023-04-07T00:44:31;98688.88;;;6.51;39.74
70343;BME280;57767;42.068;24.752;2023-04-07T00:45:33;98687.63;;;6.47;39.86
70343;BME280;57767;42.068;24.752;2023-04-07T00:46:35;98687.63;;;6.47;39.71
70343;BME280;57767;42.068;24.752;2023-04-07T00:47:36;98675.00;;;6.36;39.56
70343;BME280;57767;42.068;24.752;2023-04-07T00:48:38;98689.25;;;6.48;40.32
70343;BME280;57767;42.068;24.752;2023-04-07T00:49:40;98673.91;;;6.45;39.91
70343;BME280;57767;42.068;24.752;2023-04-07T00:50:44;98687.84;;;6.45;40.37
70343;BME280;57767;42.068;24.752;2023-04-07T00:51:46;98691.69;;;6.50;39.84
70343;BME280;57767;42.068;24.752;2023-04-07T00:52:47;98683.38;;;6.46;40.15
70343;BME280;57767;42.068;24.752;2023-04-07T00:53:49;98692.88;;;6.47;39.71
70343;BME280;57767;42.068;24.752;2023-04-07T00:54:55;98691.63;;;6.43;40.00
70343;BME280;57767;42.068;24.752;2023-04-07T00:55:58;98683.88;;;6.35;39.46
70343;BME280;57767;42.068;24.752;2023-04-07T00:56:59;98687.31;;;6.35;39.36
70343;BME280;57767;42.068;24.752;2023-04-07T00:58:02;98669.69;;;6.29;39.53
70343;BME280;57767;42.068;24.752;2023-04-07T00:59:06;98690.75;;;6.36;39.58
70343;BME280;57767;42.068;24.752;2023-04-07T01:00:08;98690.91;;;6.34;40.24
70343;BME280;57767;42.068;24.752;2023-04-07T01:01:54;98686.97;;;6.24;40.04
70343;BME280;57767;42.068;24.752;2023-04-07T01:02:58;98691.59;;;6.22;40.20
70343;BME280;57767;42.068;24.752;2023-04-07T01:04:21;98681.09;;;6.22;40.39
70343;BME280;57767;42.068;24.752;2023-04-07T01:06:48;98683.94;;;6.20;40.26
70343;BME280;57767;42.068;24.752;2023-04-07T01:08:08;98682.03;;;6.14;40.02
70343;BME280;57767;42.068;24.752;2023-04-07T01:09:18;98690.81;;;6.06;40.16
70343;BME280;57767;42.068;24.752;2023-04-07T01:10:26;98692.06;;;6.10;40.18
70343;BME280;57767;42.068;24.752;2023-04-07T01:13:02;98681.38;;;6.12;39.72
70343;BME280;57767;42.068;24.752;2023-04-07T01:14:09;98677.44;;;6.01;40.14
70343;BME280;57767;42.068;24.752;2023-04-07T01:15:11;98688.78;;;6.08;39.37
70343;BME280;57767;42.068;24.752;2023-04-07T01:16:27;98681.31;;;6.05;39.79
70343;BME280;57767;42.068;24.752;2023-04-07T01:17:31;98677.44;;;6.01;40.41
70343;BME280;57767;42.068;24.752;2023-04-07T01:18:36;98694.44;;;6.05;40.22
70343;BME280;57767;42.068;24.752;2023-04-07T01:20:48;98697.94;;;6.13;40.65
70343;BME280;57767;42.068;24.752;2023-04-07T01:21:51;98685.19;;;6.09;41.01
70343;BME280;57767;42.068;24.752;2023-04-07T01:22:56;98697.28;;;6.10;40.38
70343;BME280;57767;42.068;24.752;2023-04-07T01:26:06;98694.78;;;6.02;40.60
70343;BME280;57767;42.068;24.752;2023-04-07T01:27:29;98705.28;;;6.02;40.42
70343;BME280;57767;42.068;24.752;2023-04-07T01:28:55;98671.03;;;5.89;40.75
70343;BME280;57767;42.068;24.752;2023-04-07T01:30:00;98691.25;;;5.95;40.83
70343;BME280;57767;42.068;24.752;2023-04-07T01:31:03;98705.63;;;5.99;41.11
70343;BME280;57767;42.068;24.752;2023-04-07T01:32:09;98694.63;;;5.89;40.39
70343;BME280;57767;42.068;24.752;2023-04-07T01:33:13;98698.69;;;5.92;40.29
70343;BME280;57767;42.068;24.752;2023-04-07T01:34:16;98699.94;;;5.96;40.75
70343;BME280;57767;42.068;24.752;2023-04-07T01:35:18;98704.19;;;5.97;40.96
70343;BME280;57767;42.068;24.752;2023-04-07T01:36:21;98697.94;;;5.98;40.92
70343;BME280;57767;42.068;24.752;2023-04-07T01:37:26;98693.31;;;5.85;40.35
70343;BME280;57767;42.068;24.752;2023-04-07T01:38:28;98702.38;;;5.97;40.84
70343;BME280;57767;42.068;24.752;2023-04-07T01:39:31;98689.19;;;5.91;40.82
70343;BME280;57767;42.068;24.752;2023-04-07T01:40:35;98701.13;;;5.93;40.29
70343;BME280;57767;42.068;24.752;2023-04-07T01:41:39;98695.72;;;5.95;40.09
70343;BME280;57767;42.068;24.752;2023-04-07T01:42:43;98692.00;;;5.89;40.33
70343;BME280;57767;42.068;24.752;2023-04-07T01:43:47;98693.31;;;5.85;41.21
70343;BME280;57767;42.068;24.752;2023-04-07T01:44:49;98708.03;;;5.86;41.09
70343;BME280;57767;42.068;24.752;2023-04-07T01:45:53;98697.09;;;5.83;40.45
70343;BME280;57767;42.068;24.752;2023-04-07T01:46:56;98701.00;;;5.87;40.60
70343;BME280;57767;42.068;24.752;2023-04-07T01:47:58;98702.47;;;5.89;40.99
70343;BME280;57767;42.068;24.752;2023-04-07T01:49:00;98701.00;;;5.87;40.64
70343;BME280;57767;42.068;24.752;2023-04-07T01:50:04;98699.53;;;5.84;40.80
70343;BME280;57767;42.068;24.752;2023-04-07T01:51:08;98687.19;;;5.78;41.02
70343;BME280;57767;42.068;24.752;2023-04-07T01:52:12;98696.56;;;5.87;40.85
70343;BME280;57767;42.068;24.752;2023-04-07T01:53:15;98705.41;;;5.86;40.93
70343;BME280;57767;42.068;24.752;2023-04-07T01:54:18;98695.03;;;5.78;41.66
70343;BME280;57767;42.068;24.752;2023-04-07T01:55:21;98700.63;;;5.75;41.23
70343;BME280;57767;42.068;24.752;2023-04-07T01:56:23;98701.16;;;5.70;40.84
70343;BME280;57767;42.068;24.752;2023-04-07T01:57:25;98693.94;;;5.72;41.69
70343;BME280;57767;42.068;24.752;2023-04-07T01:58:27;98701.44;;;5.75;41.72
70343;BME280;57767;42.068;24.752;2023-04-07T01:59:29;98701.09;;;5.79;40.46
70343;BME280;57767;42.068;24.752;2023-04-07T02:00:31;98700.28;;;5.78;40.66
70343;BME280;57767;42.068;24.752;2023-04-07T02:01:34;98698.38;;;5.72;40.90
70343;BME280;57767;42.068;24.752;2023-04-07T02:02:40;98693.59;;;5.75;40.74
70343;BME280;57767;42.068;24.752;2023-04-07T02:05:04;98688.63;;;5.66;40.69
70343;BME280;57767;42.068;24.752;2023-04-07T02:06:12;98691.97;;;5.60;40.53
70343;BME280;57767;42.068;24.752;2023-04-07T02:07:23;98696.84;;;5.63;40.60
70343;BME280;57767;42.068;24.752;2023-04-07T02:08:27;98691.59;;;5.63;40.89
70343;BME280;57767;42.068;24.752;2023-04-07T02:09:33;98682.47;;;5.59;40.25
70343;BME280;57767;42.068;24.752;2023-04-07T02:10:37;98691.25;;;5.66;40.42
70343;BME280;57767;42.068;24.752;2023-04-07T02:11:40;98681.13;;;5.63;40.60
70343;BME280;57767;42.068;24.752;2023-04-07T02:12:45;98698.75;;;5.69;40.73
70343;BME280;57767;42.068;24.752;2023-04-07T02:13:47;98697.13;;;5.68;39.96
70343;BME280;57767;42.068;24.752;2023-04-07T02:14:50;98691.44;;;5.64;41.02
70343;BME280;57767;42.068;24.752;2023-04-07T02:15:53;98696.19;;;5.61;40.14
70343;BME280;57767;42.068;24.752;2023-04-07T02:16:58;98679.84;;;5.59;40.20
70343;BME280;57767;42.068;24.752;2023-04-07T02:18:02;98692.13;;;5.58;40.99
70343;BME280;57767;42.068;24.752;2023-04-07T02:19:05;98686.88;;;5.58;39.66
70343;BME280;57767;42.068;24.752;2023-04-07T02:20:08;98691.88;;;5.53;40.63
70343;BME280;57767;42.068;24.752;2023-04-07T02:21:11;98686.19;;;5.50;41.21
70343;BME280;57767;42.068;24.752;2023-04-07T02:22:16;98689.91;;;5.55;41.00
70343;BME280;57767;42.068;24.752;2023-04-07T02:23:17;98682.56;;;5.51;40.62
70343;BME280;57767;42.068;24.752;2023-04-07T02:24:20;98680.75;;;5.51;40.46
70343;BME280;57767;42.068;24.752;2023-04-07T02:25:29;98696.56;;;5.58;40.19
70343;BME280;57767;42.068;24.752;2023-04-07T02:26:35;98695.38;;;5.60;40.97
70343;BME280;57767;42.068;24.752;2023-04-07T02:27:36;98695.31;;;5.54;40.57
70343;BME280;57767;42.068;24.752;2023-04-07T02:28:38;98698.56;;;5.56;40.91
70343;BME280;57767;42.068;24.752;2023-04-07T02:29:40;98693.69;;;5.53;40.41
70343;BME280;57767;42.068;24.752;2023-04-07T02:30:42;98694.50;;;5.53;40.60
70343;BME280;57767;42.068;24.752;2023-04-07T02:31:43;98698.91;;;5.53;41.25
70343;BME280;57767;42.068;24.752;2023-04-07T02:32:45;98683.91;;;5.47;40.77
70343;BME280;57767;42.068;24.752;2023-04-07T02:33:47;98702.25;;;5.61;40.70
70343;BME280;57767;42.068;24.752;2023-04-07T02:34:49;98681.56;;;5.52;40.28
70343;BME280;57767;42.068;24.752;2023-04-07T02:35:51;98703.81;;;5.56;40.75
70343;BME280;57767;42.068;24.752;2023-04-07T02:36:53;98707.03;;;5.58;40.78
70343;BME280;57767;42.068;24.752;2023-04-07T02:37:54;98694.31;;;5.55;40.87
70343;BME280;57767;42.068;24.752;2023-04-07T02:38:56;98703.81;;;5.56;40.28
70343;BME280;57767;42.068;24.752;2023-04-07T02:39:58;98702.19;;;5.55;40.55
70343;BME280;57767;42.068;24.752;2023-04-07T02:40:59;98703.34;;;5.52;40.58
70343;BME280;57767;42.068;24.752;2023-04-07T02:42:01;98692.41;;;5.49;41.16
70343;BME280;57767;42.068;24.752;2023-04-07T02:43:03;98704.97;;;5.53;40.61
70343;BME280;57767;42.068;24.752;2023-04-07T02:44:05;98692.41;;;5.49;40.69
70343;BME280;57767;42.068;24.752;2023-04-07T02:45:08;98693.75;;;5.45;40.53
70343;BME280;57767;42.068;24.752;2023-04-07T02:46:10;98670.38;;;5.28;40.43
70343;BME280;57767;42.068;24.752;2023-04-07T02:47:12;98697.81;;;5.47;40.91
70343;BME280;57767;42.068;24.752;2023-04-07T02:48:13;98699.28;;;5.50;40.74
70343;BME280;57767;42.068;24.752;2023-04-07T02:49:15;98708.22;;;5.55;40.97
70343;BME280;57767;42.068;24.752;2023-04-07T02:50:17;98702.34;;;5.53;41.11
70343;BME280;57767;42.068;24.752;2023-04-07T02:51:19;98701.19;;;5.56;40.99
70343;BME280;57767;42.068;24.752;2023-04-07T02:52:21;98710.66;;;5.57;41.22
70343;BME280;57767;42.068;24.752;2023-04-07T02:53:23;98712.81;;;5.53;41.10
70343;BME280;57767;42.068;24.752;2023-04-07T02:54:24;98692.56;;;5.47;40.97
70343;BME280;57767;42.068;24.752;2023-04-07T02:55:26;98713.47;;;5.55;40.95
70343;BME280;57767;42.068;24.752;2023-04-07T02:56:28;98710.03;;;5.55;40.32
70343;BME280;57767;42.068;24.752;2023-04-07T02:57:30;98707.59;;;5.53;40.39
70343;BME280;57767;42.068;24.752;2023-04-07T02:58:31;98705.78;;;5.54;40.53
70343;BME280;57767;42.068;24.752;2023-04-07T02:59:33;98705.31;;;5.50;41.34
70343;BME280;57767;42.068;24.752;2023-04-07T03:00:35;98700.44;;;5.47;41.55
70343;BME280;57767;42.068;24.752;2023-04-07T03:01:37;98708.94;;;5.49;41.49
70343;BME280;57767;42.068;24.752;2023-04-07T03:02:39;98701.88;;;5.50;40.59
70343;BME280;57767;42.068;24.752;2023-04-07T03:03:41;98685.00;;;5.37;40.56
70343;BME280;57767;42.068;24.752;2023-04-07T03:04:45;98701.25;;;5.48;41.32
70343;BME280;57767;42.068;24.752;2023-04-07T03:05:47;98698.00;;;5.46;40.58
70343;BME280;57767;42.068;24.752;2023-04-07T03:06:49;98705.78;;;5.54;40.80
70343;BME280;57767;42.068;24.752;2023-04-07T03:07:50;98704.50;;;5.50;40.83
70343;BME280;57767;42.068;24.752;2023-04-07T03:08:52;98703.06;;;5.47;40.85
70343;BME280;57767;42.068;24.752;2023-04-07T03:09:54;98703.88;;;5.48;40.87
70343;BME280;57767;42.068;24.752;2023-04-07T03:10:56;98698.97;;;5.45;40.38
70343;BME280;57767;42.068;24.752;2023-04-07T03:11:57;98703.69;;;5.49;40.42
70343;BME280;57767;42.068;24.752;2023-04-07T03:12:59;98703.69;;;5.49;40.16
70343;BME280;57767;42.068;24.752;2023-04-07T03:14:01;98706.31;;;5.49;41.00
70343;BME280;57767;42.068;24.752;2023-04-07T03:15:03;98692.41;;;5.49;40.24
70343;BME280;57767;42.068;24.752;2023-04-07T03:16:05;98704.78;;;5.55;39.97
70343;BME280;57767;42.068;24.752;2023-04-07T03:17:07;98702.19;;;5.55;40.25
70343;BME280;57767;42.068;24.752;2023-04-07T03:18:09;98705.59;;;5.55;40.49
70343;BME280;57767;42.068;24.752;2023-04-07T03:19:12;98708.66;;;5.59;40.00
70343;BME280;57767;42.068;24.752;2023-04-07T03:20:13;98708.66;;;5.59;40.02
70343;BME280;57767;42.068;24.752;2023-04-07T03:21:15;98714.72;;;5.59;39.94
70343;BME280;57767;42.068;24.752;2023-04-07T03:22:17;98703.16;;;5.54;39.82
70343;BME280;57767;42.068;24.752;2023-04-07T03:23:19;98710.22;;;5.53;40.94
70343;BME280;57767;42.068;24.752;2023-04-07T03:24:21;98700.09;;;5.50;40.33
70343;BME280;57767;42.068;24.752;2023-04-07T03:25:24;98703.00;;;5.55;40.20
70343;BME280;57767;42.068;24.752;2023-04-07T03:26:26;98711.84;;;5.54;40.60
70343;BME280;57767;42.068;24.752;2023-04-07T03:27:28;98710.84;;;5.55;40.64
70343;BME280;57767;42.068;24.752;2023-04-07T03:28:29;98715.28;;;5.55;40.66
70343;BME280;57767;42.068;24.752;2023-04-07T03:29:31;98702.00;;;5.56;40.50
70343;BME280;57767;42.068;24.752;2023-04-07T03:30:33;98708.56;;;5.52;40.16
70343;BME280;57767;42.068;24.752;2023-04-07T03:31:35;98717.06;;;5.54;40.34
70343;BME280;57767;42.068;24.752;2023-04-07T03:32:38;98714.28;;;5.56;40.91
70343;BME280;57767;42.068;24.752;2023-04-07T03:33:39;98713.09;;;5.58;40.66
70343;BME280;57767;42.068;24.752;2023-04-07T03:34:41;98710.47;;;5.58;40.58
70343;BME280;57767;42.068;24.752;2023-04-07T03:35:43;98710.66;;;5.57;39.70
70343;BME280;57767;42.068;24.752;2023-04-07T03:36:45;98716.50;;;5.59;40.54
70343;BME280;57767;42.068;24.752;2023-04-07T03:37:46;98708.22;;;5.55;40.20
70343;BME280;57767;42.068;24.752;2023-04-07T03:38:48;98711.28;;;5.59;39.92
70343;BME280;57767;42.068;24.752;2023-04-07T03:39:50;98712.09;;;5.59;40.04
70343;BME280;57767;42.068;24.752;2023-04-07T03:40:52;98711.09;;;5.60;40.42
70343;BME280;57767;42.068;24.752;2023-04-07T03:41:54;98713.09;;;5.58;40.03
70343;BME280;57767;42.068;24.752;2023-04-07T03:42:56;98712.22;;;5.66;39.82
70343;BME280;57767;42.068;24.752;2023-04-07T03:43:58;98716.81;;;5.64;39.98
70343;BME280;57767;42.068;24.752;2023-04-07T03:45:00;98714.47;;;5.69;39.83
70343;BME280;57767;42.068;24.752;2023-04-07T03:46:02;98712.84;;;5.68;40.53
70343;BME280;57767;42.068;24.752;2023-04-07T03:47:03;98712.03;;;5.67;39.81
70343;BME280;57767;42.068;24.752;2023-04-07T03:48:05;98719.72;;;5.69;40.24
70343;BME280;57767;42.068;24.752;2023-04-07T03:49:11;98722.34;;;5.69;39.39
70343;BME280;57767;42.068;24.752;2023-04-07T03:50:12;98718.09;;;5.68;39.67
70343;BME280;57767;42.068;24.752;2023-04-07T03:51:14;98712.72;;;5.61;39.11
70343;BME280;57767;42.068;24.752;2023-04-07T03:52:16;98722.75;;;5.72;39.55
70343;BME280;57767;42.068;24.752;2023-04-07T03:53:18;98723.75;;;5.71;38.95
70343;BME280;57767;42.068;24.752;2023-04-07T03:54:20;98718.50;;;5.71;38.84
70343;BME280;57767;42.068;24.752;2023-04-07T03:55:21;98725.38;;;5.72;39.73
70343;BME280;57767;42.068;24.752;2023-04-07T03:56:23;98731.72;;;5.78;39.74
70343;BME280;57767;42.068;24.752;2023-04-07T03:57:27;98725.03;;;5.75;39.51
70343;BME280;57767;42.068;24.752;2023-04-07T03:58:29;98725.03;;;5.75;39.63
70343;BME280;57767;42.068;24.752;2023-04-07T03:59:31;98714.09;;;5.72;39.44
70343;BME280;57767;42.068;24.752;2023-04-07T04:00:33;98729.09;;;5.78;39.82
70343;BME280;57767;42.068;24.752;2023-04-07T04:01:35;98722.94;;;5.71;39.87
70343;BME280;57767;42.068;24.752;2023-04-07T04:02:37;98735.69;;;5.74;39.39
70343;BME280;57767;42.068;24.752;2023-04-07T04:03:39;98722.69;;;5.66;40.01
70343;BME280;57767;42.068;24.752;2023-04-07T04:04:41;98728.63;;;5.74;39.66
70343;BME280;57767;42.068;24.752;2023-04-07T04:05:42;98739.13;;;5.74;39.70
70343;BME280;57767;42.068;24.752;2023-04-07T04:06:44;98739.94;;;5.75;40.43
70343;BME280;57767;42.068;24.752;2023-04-07T04:07:46;98718.78;;;5.62;39.90
70343;BME280;57767;42.068;24.752;2023-04-07T04:08:48;98736.03;;;5.71;39.66
70343;BME280;57767;42.068;24.752;2023-04-07T04:09:49;98717.72;;;5.56;40.01
70343;BME280;57767;42.068;24.752;2023-04-07T04:10:51;98732.16;;;5.67;40.29
70343;BME280;57767;42.068;24.752;2023-04-07T04:11:53;98740.22;;;5.65;40.64
70343;BME280;57767;42.068;24.752;2023-04-07T04:12:54;98739.03;;;5.68;39.94
70343;BME280;57767;42.068;24.752;2023-04-07T04:13:57;98740.03;;;5.67;40.40
70343;BME280;57767;42.068;24.752;2023-04-07T04:14:59;98736.13;;;5.63;39.84
70343;BME280;57767;42.068;24.752;2023-04-07T04:16:00;98740.03;;;5.67;39.96
70343;BME280;57767;42.068;24.752;2023-04-07T04:17:03;98733.97;;;5.66;40.00
70343;BME280;57767;42.068;24.752;2023-04-07T04:18:06;98740.47;;;5.70;39.94
70343;BME280;57767;42.068;24.752;2023-04-07T04:19:07;98747.50;;;5.70;39.66
70343;BME280;57767;42.068;24.752;2023-04-07T04:20:09;98745.91;;;5.69;40.66
70343;BME280;57767;42.068;24.752;2023-04-07T04:21:11;98745.53;;;5.72;40.39
70343;BME280;57767;42.068;24.752;2023-04-07T04:22:13;98737.50;;;5.73;40.51
70343;BME280;57767;42.068;24.752;2023-04-07T04:23:15;98744.34;;;5.74;39.69
70343;BME280;57767;42.068;24.752;2023-04-07T04:24:19;98746.97;;;5.74;40.94
70343;BME280;57767;42.068;24.752;2023-04-07T04:25:21;98747.78;;;5.75;39.83
70343;BME280;57767;42.068;24.752;2023-04-07T04:26:23;98751.56;;;5.72;40.30
70343;BME280;57767;42.068;24.752;2023-04-07T04:27:26;98753.66;;;5.77;40.32
70343;BME280;57767;42.068;24.752;2023-04-07T04:28:29;98752.03;;;5.76;40.52
70343;BME280;57767;42.068;24.752;2023-04-07T04:29:31;98741.28;;;5.71;40.26
70343;BME280;57767;42.068;24.752;2023-04-07T04:30:33;98715.63;;;5.52;40.59
70343;BME280;57767;42.068;24.752;2023-04-07T04:31:35;98757.28;;;5.76;40.08
70343;BME280;57767;42.068;24.752;2023-04-07T04:32:36;98746.81;;;5.76;39.83
70343;BME280;57767;42.068;24.752;2023-04-07T04:33:38;98761.63;;;5.84;39.65
70343;BME280;57767;42.068;24.752;2023-04-07T04:34:40;98746.88;;;5.83;39.52
70343;BME280;57767;42.068;24.752;2023-04-07T04:35:44;98751.78;;;5.86;40.24
70343;BME280;57767;42.068;24.752;2023-04-07T04:36:46;98756.69;;;5.89;39.90
70343;BME280;57767;42.068;24.752;2023-04-07T04:37:49;98740.47;;;5.85;39.88
70343;BME280;57767;42.068;24.752;2023-04-07T04:38:51;98748.81;;;5.89;39.96
70343;BME280;57767;42.068;24.752;2023-04-07T04:39:53;98756.41;;;5.98;39.07
70343;BME280;57767;42.068;24.752;2023-04-07T04:40:55;98742.66;;;5.96;39.82
70343;BME280;57767;42.068;24.752;2023-04-07T04:41:56;98744.59;;;6.02;39.85
70343;BME280;57767;42.068;24.752;2023-04-07T04:42:58;98751.63;;;6.17;39.41
70343;BME280;57767;42.068;24.752;2023-04-07T04:44:00;98750.25;;;6.21;39.27
70343;BME280;57767;42.068;24.752;2023-04-07T04:45:02;98744.00;;;6.22;38.79
70343;BME280;57767;42.068;24.752;2023-04-07T04:46:04;98754.06;;;6.33;38.56
70343;BME280;57767;42.068;24.752;2023-04-07T04:47:06;98748.59;;;6.34;39.43
70343;BME280;57767;42.068;24.752;2023-04-07T04:48:07;98760.81;;;6.42;38.75
70343;BME280;57767;42.068;24.752;2023-04-07T04:49:10;98767.22;;;6.54;38.45
70343;BME280;57767;42.068;24.752;2023-04-07T04:50:12;98765.28;;;6.63;38.48
70343;BME280;57767;42.068;24.752;2023-04-07T04:51:13;98753.25;;;6.68;38.26
70343;BME280;57767;42.068;24.752;2023-04-07T04:52:15;98769.38;;;6.87;38.32
70343;BME280;57767;42.068;24.752;2023-04-07T04:53:17;98764.47;;;6.98;38.29
70343;BME280;57767;42.068;24.752;2023-04-07T04:54:19;98761.28;;;7.03;38.33
70343;BME280;57767;42.068;24.752;2023-04-07T04:55:21;98754.03;;;7.05;37.50
70343;BME280;57767;42.068;24.752;2023-04-07T04:56:23;98765.88;;;7.22;37.24
70343;BME280;57767;42.068;24.752;2023-04-07T04:57:24;98768.91;;;7.19;37.19
70343;BME280;57767;42.068;24.752;2023-04-07T04:58:26;98767.72;;;7.22;37.32
70343;BME280;57767;42.068;24.752;2023-04-07T04:59:28;98761.03;;;7.19;36.55
70343;BME280;57767;42.068;24.752;2023-04-07T05:00:30;98769.91;;;7.18;37.01
70343;BME280;57767;42.068;24.752;2023-04-07T05:01:35;98774.97;;;7.19;37.30
70343;BME280;57767;42.068;24.752;2023-04-07T05:02:37;98769.03;;;7.11;36.94
70343;BME280;57767;42.068;24.752;2023-04-07T05:03:39;98765.91;;;7.01;36.74
70343;BME280;57767;42.068;24.752;2023-04-07T05:04:41;98754.53;;;6.94;37.58
70343;BME280;57767;42.068;24.752;2023-04-07T05:05:46;98779.72;;;7.09;37.59
70343;BME280;57767;42.068;24.752;2023-04-07T05:06:49;98780.34;;;7.11;37.43
70343;BME280;57767;42.068;24.752;2023-04-07T05:07:51;98783.16;;;7.10;37.71
70343;BME280;57767;42.068;24.752;2023-04-07T05:08:56;98773.84;;;7.07;36.96
70343;BME280;57767;42.068;24.752;2023-04-07T05:09:58;98779.16;;;7.14;38.01
70343;BME280;57767;42.068;24.752;2023-04-07T05:10:59;98770.84;;;7.10;37.54
70343;BME280;57767;42.068;24.752;2023-04-07T05:12:01;98781.03;;;7.20;37.83
70343;BME280;57767;42.068;24.752;2023-04-07T05:13:03;98779.66;;;7.24;37.77
70343;BME280;57767;42.068;24.752;2023-04-07T05:14:05;98746.38;;;7.10;36.75
70343;BME280;57767;42.068;24.752;2023-04-07T05:15:07;98789.41;;;7.30;36.62
70343;BME280;57767;42.068;24.752;2023-04-07T05:16:09;98783.78;;;7.33;36.55
70343;BME280;57767;42.068;24.752;2023-04-07T05:17:11;98782.53;;;7.29;36.84
70343;BME280;57767;42.068;24.752;2023-04-07T05:18:13;98787.84;;;7.36;36.86
70343;BME280;57767;42.068;24.752;2023-04-07T05:19:15;98783.03;;;7.39;36.86
70343;BME280;57767;42.068;24.752;2023-04-07T05:20:16;98788.72;;;7.43;36.75
70343;BME280;57767;42.068;24.752;2023-04-07T05:21:18;98781.88;;;7.48;38.25
70343;BME280;57767;42.068;24.752;2023-04-07T05:22:23;98787.88;;;7.64;37.18
70343;BME280;57767;42.068;24.752;2023-04-07T05:23:24;98790.75;;;7.69;36.44
70343;BME280;57767;42.068;24.752;2023-04-07T05:24:27;98792.78;;;7.73;36.57
70343;BME280;57767;42.068;24.752;2023-04-07T05:25:29;98791.47;;;7.84;36.93
70343;BME280;57767;42.068;24.752;2023-04-07T05:26:31;98791.69;;;7.89;39.26
70343;BME280;57767;42.068;24.752;2023-04-07T05:27:33;98789.00;;;8.10;37.51
70343;BME280;57767;42.068;24.752;2023-04-07T05:28:35;98790.31;;;8.27;39.34
70343;BME280;57767;42.068;24.752;2023-04-07T05:29:36;98786.19;;;8.46;37.29
70343;BME280;57767;42.068;24.752;2023-04-07T05:30:38;98788.28;;;8.64;38.24
70343;BME280;57767;42.068;24.752;2023-04-07T05:31:40;98792.81;;;8.83;37.28
70343;BME280;57767;42.068;24.752;2023-04-07T05:32:42;98796.28;;;9.04;36.74
70343;BME280;57767;42.068;24.752;2023-04-07T05:33:44;98788.41;;;9.10;33.93
70343;BME280;57767;42.068;24.752;2023-04-07T05:34:49;98800.19;;;9.21;34.23
70343;BME280;57767;42.068;24.752;2023-04-07T05:35:51;98789.84;;;9.19;33.27
70343;BME280;57767;42.068;24.752;2023-04-07T05:36:52;98800.78;;;9.16;33.77
70343;BME280;57767;42.068;24.752;2023-04-07T05:37:54;98792.06;;;9.16;33.72
70343;BME280;57767;42.068;24.752;2023-04-07T05:38:56;98787.00;;;9.08;32.61
70343;BME280;57767;42.068;24.752;2023-04-07T05:40:01;98788.41;;;9.04;34.09